createdAt,value
2023-01-22T00:01:12.683Z,102834.50
2023-01-22T00:04:16.424Z,102832.28
2023-01-22T00:07:20.756Z,102847.81
2023-01-22T00:10:23.334Z,102835.63
2023-01-22T00:13:27.001Z,102838.81
2023-01-22T00:16:29.681Z,102839.53
2023-01-22T00:19:32.964Z,102841.63
2023-01-22T00:22:36.901Z,102833.09
2023-01-22T00:25:39.566Z,102827.94
2023-01-22T00:28:43.962Z,102826.72
2023-01-22T00:31:46.584Z,102823.25
2023-01-22T00:34:52.316Z,102814.41
2023-01-22T00:37:56.367Z,102814.13
2023-01-22T00:41:01.871Z,102810.25
2023-01-22T00:44:04.699Z,102799.53
2023-01-22T00:47:07.276Z,102809.78
2023-01-22T00:50:11.497Z,102807.88
2023-01-22T00:53:15.502Z,102811.50
2023-01-22T00:56:18.326Z,102802.38
2023-01-22T00:59:20.932Z,102812.88
2023-01-22T01:02:23.523Z,102799.53
2023-01-22T01:05:26.172Z,102807.13
2023-01-22T01:08:32.156Z,102803.94
2023-01-22T01:11:34.803Z,102811.50
2023-01-22T01:14:37.417Z,102810.88
2023-01-22T01:17:39.979Z,102814.13
2023-01-22T01:20:42.735Z,102808.31
2023-01-22T01:23:47.573Z,102808.41
2023-01-22T01:26:50.169Z,102813.28
2023-01-22T01:29:52.736Z,102808.28
2023-01-22T01:32:55.306Z,102802.56
2023-01-22T01:36:02.147Z,102799.03
2023-01-22T01:39:06.160Z,102797.44
2023-01-22T01:42:09.405Z,102806.38
2023-01-22T01:45:27.588Z,102790.69
2023-01-22T01:48:33.929Z,102789.09
2023-01-22T01:51:37.814Z,102795.91
2023-01-22T01:54:45.421Z,102801.50
2023-01-22T01:57:48.206Z,102795.44
2023-01-22T02:00:55.196Z,102802.38
2023-01-22T02:03:58.967Z,102806.81
2023-01-22T02:07:01.780Z,102799.81
2023-01-22T02:10:07.116Z,102797.94
2023-01-22T02:13:13.936Z,102786.63
2023-01-22T02:16:16.535Z,102789.94
2023-01-22T02:19:19.135Z,102794.94
2023-01-22T02:22:24.733Z,102793.94
2023-01-22T02:25:27.471Z,102792.63
2023-01-22T02:28:30.054Z,102789.00
2023-01-22T02:31:32.661Z,102793.25
2023-01-22T02:34:35.486Z,102791.06
2023-01-22T02:37:39.455Z,102791.50
2023-01-22T02:40:49.106Z,102782.53
2023-01-22T02:43:51.930Z,102781.97
2023-01-22T02:46:54.516Z,102781.69
2023-01-22T02:49:57.079Z,102781.81
2023-01-22T02:53:01.047Z,102772.28
2023-01-22T02:56:06.604Z,102774.22
2023-01-22T02:59:09.356Z,102779.78
2023-01-22T03:02:12.196Z,102772.38
2023-01-22T03:05:14.902Z,102768.56
2023-01-22T03:08:20.476Z,102767.94
2023-01-22T03:11:23.807Z,102768.75
2023-01-22T03:14:44.091Z,102769.31
2023-01-22T03:18:04.305Z,102766.50
2023-01-22T03:21:20.141Z,102767.94
2023-01-22T03:24:24.283Z,102765.75
2023-01-22T03:27:28.799Z,102769.75
2023-01-22T03:30:31.370Z,102761.44
2023-01-22T03:33:34.750Z,102759.06
2023-01-22T03:36:37.399Z,102767.03
2023-01-22T03:39:42.252Z,102762.22
2023-01-22T03:42:44.853Z,102757.09
2023-01-22T03:45:47.437Z,102757.41
2023-01-22T03:48:52.009Z,102768.69
2023-01-22T03:51:54.587Z,102770.22
2023-01-22T03:54:58.520Z,102777.56
2023-01-22T03:58:01.070Z,102778.31
2023-01-22T04:01:05.869Z,102778.00
2023-01-22T04:04:08.480Z,102774.78
2023-01-22T04:07:11.091Z,102773.28
2023-01-22T04:10:15.137Z,102765.19
2023-01-22T04:13:17.750Z,102766.25
2023-01-22T04:16:20.343Z,102766.75
2023-01-22T04:19:22.933Z,102770.50
2023-01-22T04:22:25.527Z,102767.31
2023-01-22T04:25:29.475Z,102768.13
2023-01-22T04:28:32.127Z,102769.03
2023-01-22T04:31:34.827Z,102755.56
2023-01-22T04:34:37.449Z,102760.50
2023-01-22T04:37:40.350Z,102761.88
2023-01-22T04:40:44.283Z,102767.59
2023-01-22T04:43:46.847Z,102761.16
2023-01-22T04:46:49.453Z,102758.66
2023-01-22T04:49:52.201Z,102752.03
2023-01-22T04:52:56.147Z,102750.22
2023-01-22T04:56:00.105Z,102755.31
2023-01-22T04:59:02.686Z,102755.25
2023-01-22T05:02:05.908Z,102747.94
2023-01-22T05:05:09.769Z,102751.03
2023-01-22T05:08:12.379Z,102744.75
2023-01-22T05:11:16.350Z,102750.19
2023-01-22T05:14:19.019Z,102746.03
2023-01-22T05:17:22.072Z,102745.88
2023-01-22T05:20:25.495Z,102750.66
2023-01-22T05:23:28.088Z,102743.16
2023-01-22T05:26:32.030Z,102743.63
2023-01-22T05:29:34.620Z,102753.88
2023-01-22T05:32:37.264Z,102753.66
2023-01-22T05:35:39.846Z,102746.69
2023-01-22T05:38:42.460Z,102758.91
2023-01-22T05:41:46.386Z,102763.31
2023-01-22T05:44:49.127Z,102760.34
2023-01-22T05:47:53.886Z,102763.41
2023-01-22T05:50:56.489Z,102759.16
2023-01-22T05:53:59.211Z,102759.63
2023-01-22T05:57:03.196Z,102764.16
2023-01-22T06:00:08.426Z,102764.13
2023-01-22T06:03:11.055Z,102765.63
2023-01-22T06:06:15.447Z,102762.19
2023-01-22T06:09:18.078Z,102767.53
2023-01-22T06:12:22.041Z,102770.19
2023-01-22T06:15:24.685Z,102766.16
2023-01-22T06:18:27.864Z,102773.41
2023-01-22T06:21:30.440Z,102768.94
2023-01-22T06:24:33.023Z,102771.50
2023-01-22T06:27:36.973Z,102769.75
2023-01-22T06:30:39.565Z,102773.38
2023-01-22T06:33:42.267Z,102776.63
2023-01-22T06:36:44.910Z,102779.63
2023-01-22T06:39:47.538Z,102776.81
2023-01-22T06:42:51.477Z,102773.88
2023-01-22T06:45:54.695Z,102774.00
2023-01-22T06:48:58.883Z,102780.09
2023-01-22T06:52:01.442Z,102790.94
2023-01-22T06:55:04.278Z,102792.97
2023-01-22T06:58:08.205Z,102797.31
2023-01-22T07:01:10.846Z,102793.94
2023-01-22T07:04:13.429Z,102798.91
2023-01-22T07:07:16.213Z,102795.06
2023-01-22T07:10:19.272Z,102799.00
2023-01-22T07:13:23.600Z,102808.38
2023-01-22T07:16:26.204Z,102805.00
2023-01-22T07:19:28.860Z,102809.50
2023-01-22T07:22:32.275Z,102809.56
2023-01-22T07:25:34.876Z,102817.56
2023-01-22T07:28:38.853Z,102820.09
2023-01-22T07:31:41.442Z,102818.00
2023-01-22T07:34:44.097Z,102814.19
2023-01-22T07:37:52.504Z,102822.28
2023-01-22T07:40:55.581Z,102821.66
2023-01-22T07:44:00.422Z,102823.16
2023-01-22T07:47:03.031Z,102826.91
2023-01-22T07:50:06.518Z,102833.16
2023-01-22T07:53:11.639Z,102835.94
2023-01-22T07:56:14.224Z,102847.28
2023-01-22T07:59:18.254Z,102834.31
2023-01-22T08:02:20.848Z,102835.97
2023-01-22T08:05:24.070Z,102842.88
2023-01-22T08:08:26.653Z,102847.00
2023-01-22T08:11:29.631Z,102846.59
2023-01-22T08:14:33.578Z,102849.25
2023-01-22T08:17:36.428Z,102852.94
2023-01-22T08:20:39.021Z,102858.19
2023-01-22T08:23:42.536Z,102857.19
2023-01-22T08:26:46.313Z,102861.66
2023-01-22T08:29:50.748Z,102859.75
2023-01-22T08:32:53.500Z,102862.72
2023-01-22T08:35:56.481Z,102873.25
2023-01-22T08:38:59.110Z,102873.94
2023-01-22T08:42:01.715Z,102875.31
2023-01-22T08:45:06.830Z,102879.50
2023-01-22T08:48:09.430Z,102871.63
2023-01-22T08:51:12.781Z,102877.97
2023-01-22T08:54:15.432Z,102887.28
2023-01-22T08:57:18.023Z,102883.13
2023-01-22T09:00:23.283Z,102876.66
2023-01-22T09:03:26.090Z,102887.06
2023-01-22T09:06:28.777Z,102889.13
2023-01-22T09:09:31.369Z,102892.75
2023-01-22T09:12:33.976Z,102889.81
2023-01-22T09:15:38.270Z,102894.53
2023-01-22T09:18:41.006Z,102887.34
2023-01-22T09:21:43.645Z,102897.19
2023-01-22T09:24:46.205Z,102890.13
2023-01-22T09:27:48.820Z,102893.63
2023-01-22T09:30:52.793Z,102892.16
2023-01-22T09:33:55.867Z,102888.94
2023-01-22T09:37:00.128Z,102898.38
2023-01-22T09:40:02.793Z,102893.72
2023-01-22T09:43:07.665Z,102883.56
2023-01-22T09:46:17.910Z,102887.03
2023-01-22T09:49:24.462Z,102893.63
2023-01-22T09:52:30.761Z,102892.84
2023-01-22T09:55:41.650Z,102901.66
2023-01-22T09:58:44.521Z,102891.22
2023-01-22T10:01:52.271Z,102889.63
2023-01-22T10:04:59.764Z,102893.22
2023-01-22T10:08:06.790Z,102885.72
2023-01-22T10:11:10.899Z,102890.00
2023-01-22T10:14:18.260Z,102888.34
2023-01-22T10:17:25.662Z,102888.66
2023-01-22T10:20:29.037Z,102889.78
2023-01-22T10:23:33.629Z,102893.41
2023-01-22T10:26:38.812Z,102884.50
2023-01-22T10:29:41.787Z,102881.06
2023-01-22T10:32:45.786Z,102878.50
2023-01-22T10:35:50.289Z,102877.47
2023-01-22T10:39:04.560Z,102878.25
2023-01-22T10:42:07.183Z,102874.69
2023-01-22T10:45:15.931Z,102866.19
2023-01-22T10:48:20.603Z,102861.88
2023-01-22T10:51:28.338Z,102868.25
2023-01-22T10:54:33.887Z,102864.53
2023-01-22T10:57:37.689Z,102866.28
2023-01-22T11:00:51.848Z,102864.22
2023-01-22T11:03:56.449Z,102863.44
2023-01-22T11:07:06.467Z,102868.53
2023-01-22T11:10:17.174Z,102867.16
2023-01-22T11:13:24.232Z,102853.41
2023-01-22T11:16:27.088Z,102855.84
2023-01-22T11:19:40.650Z,102863.81
2023-01-22T11:22:47.499Z,102860.06
2023-01-22T11:25:58.640Z,102857.50
2023-01-22T11:29:09.343Z,102860.50
2023-01-22T11:32:37.821Z,102861.16
2023-01-22T11:35:48.550Z,102848.97
2023-01-22T11:38:56.080Z,102852.59
2023-01-22T11:42:06.701Z,102852.00
2023-01-22T11:45:26.607Z,102852.03
2023-01-22T11:48:41.670Z,102848.53
2023-01-22T11:51:59.527Z,102840.63
2023-01-22T11:55:19.356Z,102848.50
2023-01-22T11:58:30.451Z,102845.84
2023-01-22T12:01:51.769Z,102849.25
2023-01-22T12:05:10.512Z,102848.47
2023-01-22T12:08:37.047Z,102842.16
2023-01-22T12:11:53.592Z,102843.84
2023-01-22T12:15:30.707Z,102834.47
2023-01-22T12:19:02.079Z,102842.53
2023-01-22T12:22:10.321Z,102843.09
2023-01-22T12:25:20.567Z,102850.13
2023-01-22T12:28:29.246Z,102841.28
2023-01-22T12:31:36.326Z,102847.59
2023-01-22T12:34:45.050Z,102841.44
2023-01-22T12:37:54.557Z,102841.22
2023-01-22T12:41:13.743Z,102851.81
2023-01-22T12:44:26.412Z,102846.44
2023-01-22T12:47:36.947Z,102853.75
2023-01-22T12:50:49.882Z,102841.44
2023-01-22T12:53:52.587Z,102844.78
2023-01-22T12:57:10.277Z,102844.69
2023-01-22T13:00:24.814Z,102860.50
2023-01-22T13:03:32.016Z,102853.75
2023-01-22T13:06:38.197Z,102845.88
2023-01-22T13:09:40.784Z,102854.63
2023-01-22T13:12:49.320Z,102860.00
2023-01-22T13:15:54.636Z,102862.78
2023-01-22T13:19:00.618Z,102869.69
2023-01-22T13:22:04.397Z,102865.47
2023-01-22T13:25:07.404Z,102873.25
2023-01-22T13:28:17.438Z,102864.34
2023-01-22T13:31:20.138Z,102871.19
2023-01-22T13:34:23.490Z,102861.66
2023-01-22T13:37:27.723Z,102864.97
2023-01-22T13:40:42.783Z,102866.00
2023-01-22T13:43:50.554Z,102872.97
2023-01-22T13:46:53.559Z,102875.66
2023-01-22T13:49:56.415Z,102874.72
2023-01-22T13:53:00.608Z,102870.44
2023-01-22T13:56:03.498Z,102868.75
2023-01-22T13:59:18.112Z,102880.75
2023-01-22T14:02:24.189Z,102877.25
2023-01-22T14:05:28.784Z,102882.63
2023-01-22T14:08:31.443Z,102890.63
2023-01-22T14:11:40.987Z,102887.03
2023-01-22T14:14:45.658Z,102880.75
2023-01-22T14:17:50.579Z,102889.78
2023-01-22T14:20:53.351Z,102896.09
2023-01-22T14:23:56.030Z,102895.75
2023-01-22T14:26:58.735Z,102896.66
2023-01-22T14:30:02.699Z,102889.59
2023-01-22T14:33:05.845Z,102906.31
2023-01-22T14:36:09.207Z,102905.66
2023-01-22T14:39:11.827Z,102914.97
2023-01-22T14:42:14.425Z,102913.44
2023-01-22T14:45:20.265Z,102920.47
2023-01-22T14:48:23.415Z,102924.06
2023-01-22T14:51:26.036Z,102921.78
2023-01-22T14:54:28.635Z,102928.88
2023-01-22T14:57:31.445Z,102922.06
2023-01-22T15:00:35.408Z,102926.94
2023-01-22T15:03:38.000Z,102925.28
2023-01-22T15:06:40.619Z,102929.88
2023-01-22T15:09:43.690Z,102935.34
2023-01-22T15:12:48.018Z,102938.97
2023-01-22T15:15:51.943Z,102936.16
2023-01-22T15:18:56.438Z,102944.22
2023-01-22T15:21:59.030Z,102935.19
2023-01-22T15:25:01.610Z,102942.88
2023-01-22T15:28:04.207Z,102945.31
2023-01-22T15:31:08.452Z,102954.34
2023-01-22T15:34:11.098Z,102949.22
2023-01-22T15:37:14.817Z,102952.81
2023-01-22T15:40:18.153Z,102950.78
2023-01-22T15:43:20.804Z,102959.03
2023-01-22T15:46:26.115Z,102958.81
2023-01-22T15:49:28.821Z,102966.38
2023-01-22T15:52:31.377Z,102965.09
2023-01-22T15:55:33.980Z,102969.50
2023-01-22T15:58:36.571Z,102965.72
2023-01-22T16:01:40.681Z,102967.59
2023-01-22T16:04:43.379Z,102980.19
2023-01-22T16:07:46.145Z,102974.75
2023-01-22T16:10:49.272Z,102974.84
2023-01-22T16:13:52.242Z,102980.56
2023-01-22T16:16:56.311Z,102989.13
2023-01-22T16:19:58.984Z,102990.28
2023-01-22T16:23:01.550Z,102984.75
2023-01-22T16:26:07.235Z,102987.72
2023-01-22T16:29:11.135Z,102987.56
2023-01-22T16:32:15.134Z,102991.47
2023-01-22T16:35:18.370Z,102988.91
2023-01-22T16:38:20.962Z,102987.88
2023-01-22T16:41:27.795Z,102995.69
2023-01-22T16:44:33.323Z,102986.59
2023-01-22T16:47:37.495Z,102985.97
2023-01-22T16:50:40.239Z,102987.00
2023-01-22T16:53:42.843Z,102986.22
2023-01-22T16:56:45.420Z,102985.38
2023-01-22T16:59:48.011Z,102986.31
2023-01-22T17:02:52.098Z,102985.09
2023-01-22T17:05:54.735Z,102993.06
2023-01-22T17:08:57.522Z,103001.56
2023-01-22T17:12:05.668Z,103001.59
2023-01-22T17:15:09.550Z,103002.69
2023-01-22T17:18:13.874Z,103011.19
2023-01-22T17:21:19.206Z,103010.63
2023-01-22T17:24:23.135Z,103005.28
2023-01-22T17:27:25.828Z,103008.09
2023-01-22T17:30:28.425Z,103013.81
2023-01-22T17:33:32.339Z,103023.19
2023-01-22T17:36:35.330Z,103009.00
2023-01-22T17:39:38.508Z,103019.34
2023-01-22T17:42:41.140Z,103021.53
2023-01-22T17:45:43.710Z,103016.41
2023-01-22T17:48:49.396Z,103018.13
2023-01-22T17:51:52.048Z,103029.00
2023-01-22T17:54:54.643Z,103023.84
2023-01-22T17:57:59.183Z,103033.41
2023-01-22T18:01:07.077Z,103042.13
2023-01-22T18:04:13.352Z,103038.09
2023-01-22T18:07:17.338Z,103035.84
2023-01-22T18:10:20.863Z,103037.28
2023-01-22T18:13:23.814Z,103042.13
2023-01-22T18:16:28.700Z,103037.41
2023-01-22T18:19:32.666Z,103044.09
2023-01-22T18:22:35.271Z,103045.97
2023-01-22T18:25:42.103Z,103049.06
2023-01-22T18:28:44.701Z,103041.16
2023-01-22T18:31:47.298Z,103049.53
2023-01-22T18:34:51.273Z,103049.47
2023-01-22T18:37:57.675Z,103047.19
2023-01-22T18:41:05.954Z,103051.22
2023-01-22T18:44:10.028Z,103056.69
2023-01-22T18:47:12.976Z,103049.78
2023-01-22T18:50:17.663Z,103067.28
2023-01-22T18:53:20.343Z,103063.31
2023-01-22T18:56:22.931Z,103064.28
2023-01-22T18:59:25.580Z,103073.25
2023-01-22T19:02:28.259Z,103070.63
2023-01-22T19:05:32.273Z,103072.69
2023-01-22T19:08:34.913Z,103077.19
2023-01-22T19:11:40.545Z,103079.00
2023-01-22T19:14:43.183Z,103081.22
2023-01-22T19:17:45.770Z,103092.34
2023-01-22T19:20:49.681Z,103091.00
2023-01-22T19:23:54.650Z,103092.88
2023-01-22T19:26:57.866Z,103086.69
2023-01-22T19:30:00.586Z,103095.94
2023-01-22T19:33:03.150Z,103098.59
2023-01-22T19:36:08.189Z,103101.06
2023-01-22T19:39:13.730Z,103102.94
2023-01-22T19:42:16.385Z,103104.16
2023-01-22T19:45:19.329Z,103103.91
2023-01-22T19:48:22.546Z,103106.88
2023-01-22T19:51:26.841Z,103109.03
2023-01-22T19:54:29.581Z,103121.63
2023-01-22T19:57:33.177Z,103126.97
2023-01-22T20:00:35.764Z,103128.69
2023-01-22T20:03:38.360Z,103121.38
2023-01-22T20:06:45.112Z,103137.28
2023-01-22T20:09:47.714Z,103138.06
2023-01-22T20:12:50.808Z,103135.56
2023-01-22T20:15:53.843Z,103142.88
2023-01-22T20:18:58.266Z,103147.44
2023-01-22T20:22:03.055Z,103147.44
2023-01-22T20:25:07.995Z,103153.59
2023-01-22T20:28:13.381Z,103152.94
2023-01-22T20:31:19.738Z,103159.63
2023-01-22T20:34:22.780Z,103156.78
2023-01-22T20:37:27.196Z,103156.16
2023-01-22T20:40:29.777Z,103161.81
2023-01-22T20:43:32.900Z,103165.16
2023-01-22T20:46:37.399Z,103167.88
2023-01-22T20:49:40.027Z,103163.72
2023-01-22T20:52:44.398Z,103161.31
2023-01-22T20:55:48.625Z,103165.84
2023-01-22T20:58:57.165Z,103165.53
2023-01-22T21:01:59.850Z,103167.41
2023-01-22T21:05:02.523Z,103163.69
2023-01-22T21:08:06.812Z,103164.53
2023-01-22T21:11:11.398Z,103172.84
2023-01-22T21:14:17.738Z,103168.72
2023-01-22T21:17:21.963Z,103168.94
2023-01-22T21:20:24.552Z,103161.59
2023-01-22T21:23:28.521Z,103165.53
2023-01-22T21:26:33.049Z,103155.81
2023-01-22T21:29:35.660Z,103156.56
2023-01-22T21:32:38.278Z,103155.94
2023-01-22T21:35:40.913Z,103158.44
2023-01-22T21:38:45.818Z,103159.97
2023-01-22T21:41:49.065Z,103164.56
2023-01-22T21:45:09.410Z,103169.53
2023-01-22T21:48:12.121Z,103163.47
2023-01-22T21:51:14.858Z,103160.63
2023-01-22T21:54:21.477Z,103157.88
2023-01-22T21:57:24.062Z,103154.66
2023-01-22T22:00:26.677Z,103162.91
2023-01-22T22:03:32.603Z,103158.88
2023-01-22T22:06:36.527Z,103153.47
2023-01-22T22:09:40.495Z,103165.69
2023-01-22T22:12:43.607Z,103168.09
2023-01-22T22:15:46.342Z,103179.03
2023-01-22T22:18:49.265Z,103175.97
2023-01-22T22:21:52.402Z,103179.38
2023-01-22T22:24:56.393Z,103182.97
2023-01-22T22:27:59.091Z,103191.34
2023-01-22T22:31:08.212Z,103192.53
2023-01-22T22:34:10.960Z,103184.53
2023-01-22T22:37:13.535Z,103180.91
2023-01-22T22:40:19.315Z,103182.97
2023-01-22T22:43:22.556Z,103192.22
2023-01-22T22:46:28.855Z,103192.25
2023-01-22T22:49:31.713Z,103192.78
2023-01-22T22:52:34.707Z,103191.38
2023-01-22T22:55:42.347Z,103196.06
2023-01-22T22:58:44.961Z,103196.16
2023-01-22T23:01:47.930Z,103195.00
2023-01-22T23:04:50.551Z,103199.69
2023-01-22T23:07:53.207Z,103202.94
2023-01-22T23:10:57.135Z,103201.47
2023-01-22T23:14:02.625Z,103199.66
2023-01-22T23:17:05.263Z,103201.41
2023-01-22T23:20:08.566Z,103200.59
2023-01-22T23:23:11.164Z,103193.50
2023-01-22T23:26:19.514Z,103204.06
2023-01-22T23:29:26.535Z,103203.22
2023-01-22T23:32:30.301Z,103193.44
2023-01-22T23:35:32.974Z,103200.47
2023-01-22T23:38:35.788Z,103201.50
2023-01-22T23:41:39.783Z,103200.69
2023-01-22T23:44:42.586Z,103202.09
2023-01-22T23:47:45.167Z,103190.72
2023-01-22T23:50:49.415Z,103195.06
2023-01-22T23:53:53.146Z,103185.19
2023-01-22T23:56:57.077Z,103186.38
